sensor_id;sensor_type;location;lat;lon;timestamp;P1;durP1;ratioP1;P2;durP2;ratioP2
62332;SDS011;48624;49.812;8.562;2023-04-24T00:00:17;439.00;;;421.48;;
62332;SDS011;48624;49.812;8.562;2023-04-24T00:02:43;455.95;;;437.40;;
62332;SDS011;48624;49.812;8.562;2023-04-24T00:05:15;380.75;;;366.20;;
62332;SDS011;48624;49.812;8.562;2023-04-24T00:07:42;416.00;;;400.02;;
62332;SDS011;48624;49.812;8.562;2023-04-24T00:10:09;327.17;;;315.83;;
62332;SDS011;48624;49.812;8.562;2023-04-24T00:12:35;330.17;;;318.67;;
62332;SDS011;48624;49.812;8.562;2023-04-24T00:15:01;314.42;;;303.35;;
62332;SDS011;48624;49.812;8.562;2023-04-24T00:17:26;364.42;;;350.90;;
62332;SDS011;48624;49.812;8.562;2023-04-24T00:19:51;485.08;;;462.85;;
62332;SDS011;48624;49.812;8.562;2023-04-24T00:22:23;317.25;;;306.65;;
62332;SDS011;48624;49.812;8.562;2023-04-24T00:24:51;318.75;;;307.88;;
62332;SDS011;48624;49.812;8.562;2023-04-24T00:27:16;509.48;;;483.35;;
62332;SDS011;48624;49.812;8.562;2023-04-24T00:29:41;357.92;;;345.48;;
62332;SDS011;48624;49.812;8.562;2023-04-24T00:32:07;410.15;;;395.00;;
62332;SDS011;48624;49.812;8.562;2023-04-24T00:34:32;514.03;;;489.67;;
62332;SDS011;48624;49.812;8.562;2023-04-24T00:36:58;420.35;;;404.27;;
62332;SDS011;48624;49.812;8.562;2023-04-24T00:39:23;427.10;;;410.17;;
62332;SDS011;48624;49.812;8.562;2023-04-24T00:41:48;481.95;;;458.75;;
62332;SDS011;48624;49.812;8.562;2023-04-24T00:44:15;394.30;;;379.52;;
62332;SDS011;48624;49.812;8.562;2023-04-24T00:46:43;510.85;;;483.17;;
62332;SDS011;48624;49.812;8.562;2023-04-24T00:49:08;373.27;;;359.27;;
62332;SDS011;48624;49.812;8.562;2023-04-24T00:51:33;366.38;;;353.10;;
62332;SDS011;48624;49.812;8.562;2023-04-24T00:53:59;581.80;;;549.15;;
62332;SDS011;48624;49.812;8.562;2023-04-24T00:56:25;475.50;;;455.67;;
62332;SDS011;48624;49.812;8.562;2023-04-24T00:58:51;489.50;;;468.83;;
62332;SDS011;48624;49.812;8.562;2023-04-24T01:01:17;507.80;;;485.63;;
62332;SDS011;48624;49.812;8.562;2023-04-24T01:03:45;427.55;;;410.63;;
62332;SDS011;48624;49.812;8.562;2023-04-24T01:06:11;441.92;;;424.15;;
62332;SDS011;48624;49.812;8.562;2023-04-24T01:08:37;338.63;;;326.75;;
62332;SDS011;48624;49.812;8.562;2023-04-24T01:11:06;403.73;;;388.75;;
62332;SDS011;48624;49.812;8.562;2023-04-24T01:13:31;507.83;;;482.95;;
62332;SDS011;48624;49.812;8.562;2023-04-24T01:15:57;394.05;;;379.90;;
62332;SDS011;48624;49.812;8.562;2023-04-24T01:18:23;525.28;;;500.65;;
62332;SDS011;48624;49.812;8.562;2023-04-24T01:20:48;502.40;;;479.40;;
62332;SDS011;48624;49.812;8.562;2023-04-24T01:23:18;490.60;;;469.35;;
62332;SDS011;48624;49.812;8.562;2023-04-24T01:25:43;455.20;;;436.95;;
62332;SDS011;48624;49.812;8.562;2023-04-24T01:28:09;420.45;;;404.33;;
62332;SDS011;48624;49.812;8.562;2023-04-24T01:30:35;410.77;;;395.02;;
62332;SDS011;48624;49.812;8.562;2023-04-24T01:33:01;483.25;;;462.90;;
62332;SDS011;48624;49.812;8.562;2023-04-24T01:35:27;454.50;;;435.63;;
62332;SDS011;48624;49.812;8.562;2023-04-24T01:37:53;452.00;;;432.98;;
62332;SDS011;48624;49.812;8.562;2023-04-24T01:40:18;369.77;;;356.67;;
62332;SDS011;48624;49.812;8.562;2023-04-24T01:42:43;484.10;;;461.48;;
62332;SDS011;48624;49.812;8.562;2023-04-24T01:45:10;375.90;;;362.80;;
62332;SDS011;48624;49.812;8.562;2023-04-24T01:47:37;393.92;;;379.52;;
62332;SDS011;48624;49.812;8.562;2023-04-24T01:50:03;531.90;;;503.05;;
62332;SDS011;48624;49.812;8.562;2023-04-24T01:52:29;474.45;;;454.60;;
62332;SDS011;48624;49.812;8.562;2023-04-24T01:54:56;683.15;;;637.42;;
62332;SDS011;48624;49.812;8.562;2023-04-24T01:57:24;488.35;;;467.08;;
62332;SDS011;48624;49.812;8.562;2023-04-24T01:59:50;493.52;;;473.13;;
62332;SDS011;48624;49.812;8.562;2023-04-24T02:02:16;566.95;;;534.55;;
62332;SDS011;48624;49.812;8.562;2023-04-24T02:04:41;512.72;;;489.65;;
62332;SDS011;48624;49.812;8.562;2023-04-24T02:07:06;487.17;;;466.27;;
62332;SDS011;48624;49.812;8.562;2023-04-24T02:09:32;395.25;;;380.50;;
62332;SDS011;48624;49.812;8.562;2023-04-24T02:11:57;384.05;;;370.20;;
62332;SDS011;48624;49.812;8.562;2023-04-24T02:14:22;476.60;;;452.00;;
62332;SDS011;48624;49.812;8.562;2023-04-24T02:16:48;440.30;;;422.77;;
62332;SDS011;48624;49.812;8.562;2023-04-24T02:19:13;651.53;;;608.25;;
62332;SDS011;48624;49.812;8.562;2023-04-24T02:21:38;393.30;;;378.80;;
62332;SDS011;48624;49.812;8.562;2023-04-24T02:24:03;630.38;;;594.33;;
62332;SDS011;48624;49.812;8.562;2023-04-24T02:26:29;507.40;;;481.42;;
62332;SDS011;48624;49.812;8.562;2023-04-24T02:28:56;453.58;;;434.23;;
62332;SDS011;48624;49.812;8.562;2023-04-24T02:31:22;508.00;;;483.73;;
62332;SDS011;48624;49.812;8.562;2023-04-24T02:33:47;579.83;;;549.55;;
62332;SDS011;48624;49.812;8.562;2023-04-24T02:36:13;419.73;;;403.98;;
62332;SDS011;48624;49.812;8.562;2023-04-24T02:38:38;479.25;;;459.20;;
62332;SDS011;48624;49.812;8.562;2023-04-24T02:41:04;404.45;;;389.33;;
62332;SDS011;48624;49.812;8.562;2023-04-24T02:43:31;424.35;;;407.65;;
62332;SDS011;48624;49.812;8.562;2023-04-24T02:45:57;378.65;;;365.00;;
62332;SDS011;48624;49.812;8.562;2023-04-24T02:48:22;420.05;;;404.10;;
62332;SDS011;48624;49.812;8.562;2023-04-24T02:50:48;405.95;;;389.17;;
62332;SDS011;48624;49.812;8.562;2023-04-24T02:53:13;398.00;;;383.67;;
62332;SDS011;48624;49.812;8.562;2023-04-24T02:55:39;370.92;;;357.83;;
62332;SDS011;48624;49.812;8.562;2023-04-24T02:58:04;415.65;;;398.75;;
62332;SDS011;48624;49.812;8.562;2023-04-24T03:00:31;518.90;;;494.65;;
62332;SDS011;48624;49.812;8.562;2023-04-24T03:02:56;379.88;;;366.38;;
62332;SDS011;48624;49.812;8.562;2023-04-24T03:05:22;468.15;;;448.50;;
62332;SDS011;48624;49.812;8.562;2023-04-24T03:07:47;411.20;;;396.02;;
62332;SDS011;48624;49.812;8.562;2023-04-24T03:10:12;495.85;;;473.63;;
62332;SDS011;48624;49.812;8.562;2023-04-24T03:12:38;446.90;;;428.17;;
62332;SDS011;48624;49.812;8.562;2023-04-24T03:15:03;385.75;;;371.27;;
62332;SDS011;48624;49.812;8.562;2023-04-24T03:17:29;477.95;;;458.08;;
62332;SDS011;48624;49.812;8.562;2023-04-24T03:19:55;529.97;;;504.40;;
62332;SDS011;48624;49.812;8.562;2023-04-24T03:22:22;549.60;;;522.20;;
62332;SDS011;48624;49.812;8.562;2023-04-24T03:24:47;422.85;;;407.00;;
62332;SDS011;48624;49.812;8.562;2023-04-24T03:27:12;483.50;;;463.13;;
62332;SDS011;48624;49.812;8.562;2023-04-24T03:29:37;458.10;;;440.13;;
62332;SDS011;48624;49.812;8.562;2023-04-24T03:32:03;472.33;;;452.90;;
62332;SDS011;48624;49.812;8.562;2023-04-24T03:34:28;432.15;;;416.25;;
62332;SDS011;48624;49.812;8.562;2023-04-24T03:36:53;390.08;;;376.23;;
62332;SDS011;48624;49.812;8.562;2023-04-24T03:39:19;506.23;;;484.60;;
62332;SDS011;48624;49.812;8.562;2023-04-24T03:41:44;391.20;;;377.48;;
62332;SDS011;48624;49.812;8.562;2023-04-24T03:44:09;400.90;;;386.15;;
62332;SDS011;48624;49.812;8.562;2023-04-24T03:46:34;459.95;;;441.63;;
62332;SDS011;48624;49.812;8.562;2023-04-24T03:49:00;411.75;;;397.05;;
62332;SDS011;48624;49.812;8.562;2023-04-24T03:51:25;346.83;;;334.52;;
62332;SDS011;48624;49.812;8.562;2023-04-24T03:53:52;406.90;;;391.73;;
62332;SDS011;48624;49.812;8.562;2023-04-24T03:56:18;409.92;;;394.95;;
62332;SDS011;48624;49.812;8.562;2023-04-24T03:58:43;438.67;;;422.00;;
62332;SDS011;48624;49.812;8.562;2023-04-24T04:01:08;400.58;;;386.10;;
62332;SDS011;48624;49.812;8.562;2023-04-24T04:03:35;425.10;;;408.42;;
62332;SDS011;48624;49.812;8.562;2023-04-24T04:06:00;438.13;;;415.40;;
62332;SDS011;48624;49.812;8.562;2023-04-24T04:08:25;437.77;;;420.77;;
62332;SDS011;48624;49.812;8.562;2023-04-24T04:10:51;341.17;;;329.40;;
62332;SDS011;48624;49.812;8.562;2023-04-24T04:13:18;382.80;;;368.08;;
62332;SDS011;48624;49.812;8.562;2023-04-24T04:15:43;442.88;;;425.83;;
62332;SDS011;48624;49.812;8.562;2023-04-24T04:18:08;373.50;;;360.08;;
62332;SDS011;48624;49.812;8.562;2023-04-24T04:20:33;392.50;;;378.13;;
62332;SDS011;48624;49.812;8.562;2023-04-24T04:22:59;340.08;;;328.02;;
62332;SDS011;48624;49.812;8.562;2023-04-24T04:25:24;386.50;;;371.65;;
62332;SDS011;48624;49.812;8.562;2023-04-24T04:27:49;325.73;;;313.83;;
62332;SDS011;48624;49.812;8.562;2023-04-24T04:30:16;318.77;;;307.60;;
62332;SDS011;48624;49.812;8.562;2023-04-24T04:32:41;353.77;;;339.63;;
62332;SDS011;48624;49.812;8.562;2023-04-24T04:35:07;392.80;;;376.63;;
62332;SDS011;48624;49.812;8.562;2023-04-24T04:37:32;327.40;;;315.88;;
62332;SDS011;48624;49.812;8.562;2023-04-24T04:39:59;361.80;;;348.63;;
62332;SDS011;48624;49.812;8.562;2023-04-24T04:42:25;312.58;;;301.45;;
62332;SDS011;48624;49.812;8.562;2023-04-24T04:44:53;382.85;;;367.85;;
62332;SDS011;48624;49.812;8.562;2023-04-24T04:47:19;299.58;;;288.23;;
62332;SDS011;48624;49.812;8.562;2023-04-24T04:49:47;289.95;;;279.67;;
62332;SDS011;48624;49.812;8.562;2023-04-24T04:52:13;329.33;;;317.63;;
62332;SDS011;48624;49.812;8.562;2023-04-24T04:54:39;322.08;;;309.30;;
62332;SDS011;48624;49.812;8.562;2023-04-24T04:57:08;324.08;;;312.45;;
62332;SDS011;48624;49.812;8.562;2023-04-24T04:59:33;296.40;;;285.90;;
62332;SDS011;48624;49.812;8.562;2023-04-24T05:01:59;299.67;;;289.25;;
62332;SDS011;48624;49.812;8.562;2023-04-24T05:04:24;291.98;;;282.13;;
62332;SDS011;48624;49.812;8.562;2023-04-24T05:06:50;367.15;;;353.67;;
62332;SDS011;48624;49.812;8.562;2023-04-24T05:09:16;346.00;;;332.63;;
62332;SDS011;48624;49.812;8.562;2023-04-24T05:11:41;359.85;;;346.75;;
62332;SDS011;48624;49.812;8.562;2023-04-24T05:14:06;385.15;;;370.17;;
62332;SDS011;48624;49.812;8.562;2023-04-24T05:16:32;315.42;;;303.90;;
62332;SDS011;48624;49.812;8.562;2023-04-24T05:18:57;320.23;;;308.88;;
62332;SDS011;48624;49.812;8.562;2023-04-24T05:21:22;312.25;;;301.02;;
62332;SDS011;48624;49.812;8.562;2023-04-24T05:23:48;270.85;;;260.83;;
62332;SDS011;48624;49.812;8.562;2023-04-24T05:26:13;343.77;;;331.48;;
62332;SDS011;48624;49.812;8.562;2023-04-24T05:28:40;316.40;;;305.40;;
62332;SDS011;48624;49.812;8.562;2023-04-24T05:31:05;300.63;;;289.98;;
62332;SDS011;48624;49.812;8.562;2023-04-24T05:33:31;355.45;;;342.08;;
62332;SDS011;48624;49.812;8.562;2023-04-24T05:35:56;303.70;;;293.23;;
62332;SDS011;48624;49.812;8.562;2023-04-24T05:38:22;284.73;;;274.23;;
62332;SDS011;48624;49.812;8.562;2023-04-24T05:40:48;418.15;;;401.38;;
62332;SDS011;48624;49.812;8.562;2023-04-24T05:43:13;301.58;;;289.92;;
62332;SDS011;48624;49.812;8.562;2023-04-24T05:45:38;330.80;;;318.88;;
62332;SDS011;48624;49.812;8.562;2023-04-24T05:48:04;309.55;;;297.10;;
62332;SDS011;48624;49.812;8.562;2023-04-24T05:50:29;398.35;;;382.38;;
62332;SDS011;48624;49.812;8.562;2023-04-24T05:52:55;392.52;;;373.95;;
62332;SDS011;48624;49.812;8.562;2023-04-24T05:55:23;272.02;;;262.23;;
62332;SDS011;48624;49.812;8.562;2023-04-24T05:57:48;406.63;;;388.95;;
62332;SDS011;48624;49.812;8.562;2023-04-24T06:00:13;286.70;;;275.08;;
62332;SDS011;48624;49.812;8.562;2023-04-24T06:02:39;292.90;;;279.02;;
62332;SDS011;48624;49.812;8.562;2023-04-24T06:05:04;187.30;;;180.68;;
62332;SDS011;48624;49.812;8.562;2023-04-24T06:07:30;201.02;;;193.98;;
62332;SDS011;48624;49.812;8.562;2023-04-24T06:09:56;302.50;;;289.00;;
62332;SDS011;48624;49.812;8.562;2023-04-24T06:12:23;195.52;;;188.05;;
62332;SDS011;48624;49.812;8.562;2023-04-24T06:14:48;244.43;;;235.45;;
62332;SDS011;48624;49.812;8.562;2023-04-24T06:17:14;319.35;;;306.05;;
62332;SDS011;48624;49.812;8.562;2023-04-24T06:19:39;261.75;;;252.27;;
62332;SDS011;48624;49.812;8.562;2023-04-24T06:22:05;348.27;;;332.30;;
62332;SDS011;48624;49.812;8.562;2023-04-24T06:24:30;238.07;;;229.15;;
62332;SDS011;48624;49.812;8.562;2023-04-24T06:26:56;162.68;;;156.75;;
62332;SDS011;48624;49.812;8.562;2023-04-24T06:29:22;259.25;;;249.52;;
62332;SDS011;48624;49.812;8.562;2023-04-24T06:31:47;205.23;;;197.88;;
62332;SDS011;48624;49.812;8.562;2023-04-24T06:34:13;193.15;;;186.25;;
62332;SDS011;48624;49.812;8.562;2023-04-24T06:36:38;279.13;;;268.77;;
62332;SDS011;48624;49.812;8.562;2023-04-24T06:39:04;169.43;;;163.25;;
62332;SDS011;48624;49.812;8.562;2023-04-24T06:41:29;157.27;;;151.50;;
62332;SDS011;48624;49.812;8.562;2023-04-24T06:43:55;173.32;;;166.55;;
62332;SDS011;48624;49.812;8.562;2023-04-24T06:46:20;340.42;;;327.52;;
62332;SDS011;48624;49.812;8.562;2023-04-24T06:48:51;314.90;;;303.23;;
62332;SDS011;48624;49.812;8.562;2023-04-24T06:51:17;305.42;;;291.45;;
62332;SDS011;48624;49.812;8.562;2023-04-24T06:53:43;146.40;;;141.10;;
62332;SDS011;48624;49.812;8.562;2023-04-24T06:56:08;151.10;;;145.35;;
62332;SDS011;48624;49.812;8.562;2023-04-24T06:58:33;220.52;;;212.10;;
62332;SDS011;48624;49.812;8.562;2023-04-24T07:00:59;148.23;;;142.82;;
62332;SDS011;48624;49.812;8.562;2023-04-24T07:03:24;189.70;;;182.48;;
62332;SDS011;48624;49.812;8.562;2023-04-24T07:05:50;328.80;;;309.27;;
62332;SDS011;48624;49.812;8.562;2023-04-24T07:08:16;309.17;;;296.48;;
62332;SDS011;48624;49.812;8.562;2023-04-24T07:10:43;137.07;;;132.00;;
62332;SDS011;48624;49.812;8.562;2023-04-24T07:13:12;116.47;;;112.32;;
62332;SDS011;48624;49.812;8.562;2023-04-24T07:15:37;181.32;;;174.68;;
62332;SDS011;48624;49.812;8.562;2023-04-24T07:18:03;144.57;;;138.43;;
62332;SDS011;48624;49.812;8.562;2023-04-24T07:20:29;110.57;;;106.05;;
62332;SDS011;48624;49.812;8.562;2023-04-24T07:22:54;149.27;;;143.77;;
62332;SDS011;48624;49.812;8.562;2023-04-24T07:25:20;106.85;;;102.95;;
62332;SDS011;48624;49.812;8.562;2023-04-24T07:27:45;201.30;;;193.75;;
62332;SDS011;48624;49.812;8.562;2023-04-24T07:30:11;164.93;;;158.85;;
62332;SDS011;48624;49.812;8.562;2023-04-24T07:32:38;219.52;;;210.95;;
62332;SDS011;48624;49.812;8.562;2023-04-24T07:35:03;294.48;;;281.42;;
62332;SDS011;48624;49.812;8.562;2023-04-24T07:37:30;142.48;;;137.35;;
62332;SDS011;48624;49.812;8.562;2023-04-24T07:39:55;103.38;;;99.68;;
62332;SDS011;48624;49.812;8.562;2023-04-24T07:42:20;61.45;;;58.92;;
62332;SDS011;48624;49.812;8.562;2023-04-24T07:44:45;355.50;;;337.00;;
62332;SDS011;48624;49.812;8.562;2023-04-24T07:47:12;86.93;;;83.68;;
62332;SDS011;48624;49.812;8.562;2023-04-24T07:49:39;239.70;;;229.57;;
62332;SDS011;48624;49.812;8.562;2023-04-24T07:52:08;327.52;;;257.10;;
62332;SDS011;48624;49.812;8.562;2023-04-24T07:54:34;85.00;;;80.85;;
62332;SDS011;48624;49.812;8.562;2023-04-24T07:56:59;252.25;;;237.20;;
62332;SDS011;48624;49.812;8.562;2023-04-24T07:59:25;213.65;;;200.13;;
62332;SDS011;48624;49.812;8.562;2023-04-24T08:01:51;117.88;;;113.00;;
62332;SDS011;48624;49.812;8.562;2023-04-24T08:04:16;161.93;;;153.77;;
62332;SDS011;48624;49.812;8.562;2023-04-24T08:06:42;44.63;;;42.53;;
62332;SDS011;48624;49.812;8.562;2023-04-24T08:09:08;148.52;;;141.77;;
62332;SDS011;48624;49.812;8.562;2023-04-24T08:11:33;228.75;;;217.20;;
62332;SDS011;48624;49.812;8.562;2023-04-24T08:13:58;68.85;;;65.85;;
62332;SDS011;48624;49.812;8.562;2023-04-24T08:16:24;86.10;;;82.97;;
62332;SDS011;48624;49.812;8.562;2023-04-24T08:18:50;86.10;;;82.53;;
62332;SDS011;48624;49.812;8.562;2023-04-24T08:21:15;42.50;;;41.00;;
62332;SDS011;48624;49.812;8.562;2023-04-24T08:23:42;81.75;;;78.53;;
62332;SDS011;48624;49.812;8.562;2023-04-24T08:26:07;247.82;;;231.60;;
62332;SDS011;48624;49.812;8.562;2023-04-24T08:28:33;110.32;;;105.63;;
62332;SDS011;48624;49.812;8.562;2023-04-24T08:30:58;310.95;;;290.85;;
62332;SDS011;48624;49.812;8.562;2023-04-24T08:33:23;239.25;;;223.23;;
62332;SDS011;48624;49.812;8.562;2023-04-24T08:35:49;234.20;;;221.88;;
62332;SDS011;48624;49.812;8.562;2023-04-24T08:38:15;156.98;;;151.15;;
62332;SDS011;48624;49.812;8.562;2023-04-24T08:40:41;199.50;;;186.38;;
62332;SDS011;48624;49.812;8.562;2023-04-24T08:43:08;132.70;;;127.45;;
62332;SDS011;48624;49.812;8.562;2023-04-24T08:45:35;238.38;;;225.43;;
62332;SDS011;48624;49.812;8.562;2023-04-24T08:48:01;51.60;;;49.30;;
62332;SDS011;48624;49.812;8.562;2023-04-24T08:50:27;26.83;;;25.55;;
62332;SDS011;48624;49.812;8.562;2023-04-24T08:52:53;38.22;;;36.53;;
62332;SDS011;48624;49.812;8.562;2023-04-24T08:55:19;242.88;;;230.35;;
62332;SDS011;48624;49.812;8.562;2023-04-24T08:57:48;42.08;;;40.47;;
62332;SDS011;48624;49.812;8.562;2023-04-24T09:00:17;98.13;;;93.07;;
62332;SDS011;48624;49.812;8.562;2023-04-24T09:02:44;79.35;;;75.40;;
62332;SDS011;48624;49.812;8.562;2023-04-24T09:05:12;162.68;;;154.45;;
62332;SDS011;48624;49.812;8.562;2023-04-24T09:07:40;201.45;;;192.07;;
62332;SDS011;48624;49.812;8.562;2023-04-24T09:10:09;80.10;;;75.25;;
62332;SDS011;48624;49.812;8.562;2023-04-24T09:12:35;32.60;;;31.27;;
62332;SDS011;48624;49.812;8.562;2023-04-24T09:15:01;177.80;;;168.20;;
62332;SDS011;48624;49.812;8.562;2023-04-24T09:17:28;96.20;;;92.15;;
62332;SDS011;48624;49.812;8.562;2023-04-24T09:19:54;363.67;;;345.25;;
62332;SDS011;48624;49.812;8.562;2023-04-24T09:22:20;227.95;;;216.43;;
62332;SDS011;48624;49.812;8.562;2023-04-24T09:24:46;221.05;;;210.77;;
62332;SDS011;48624;49.812;8.562;2023-04-24T09:27:12;55.47;;;53.20;;
62332;SDS011;48624;49.812;8.562;2023-04-24T09:29:38;79.80;;;76.60;;
62332;SDS011;48624;49.812;8.562;2023-04-24T09:32:22;105.13;;;100.88;;
62332;SDS011;48624;49.812;8.562;2023-04-24T09:35:04;163.25;;;155.73;;
62332;SDS011;48624;49.812;8.562;2023-04-24T09:37:34;146.80;;;139.45;;
62332;SDS011;48624;49.812;8.562;2023-04-24T09:40:17;281.00;;;267.63;;
62332;SDS011;48624;49.812;8.562;2023-04-24T09:42:45;140.80;;;132.05;;
62332;SDS011;48624;49.812;8.562;2023-04-24T09:45:12;94.68;;;91.00;;
62332;SDS011;48624;49.812;8.562;2023-04-24T09:47:39;129.38;;;124.10;;
62332;SDS011;48624;49.812;8.562;2023-04-24T09:50:12;26.05;;;24.90;;
62332;SDS011;48624;49.812;8.562;2023-04-24T09:52:43;28.45;;;27.30;;
62332;SDS011;48624;49.812;8.562;2023-04-24T09:55:10;111.90;;;106.80;;
62332;SDS011;48624;49.812;8.562;2023-04-24T09:57:54;264.05;;;250.55;;
62332;SDS011;48624;49.812;8.562;2023-04-24T10:00:24;150.70;;;145.10;;
62332;SDS011;48624;49.812;8.562;2023-04-24T10:02:56;224.65;;;212.93;;
62332;SDS011;48624;49.812;8.562;2023-04-24T10:05:24;390.35;;;366.70;;
62332;SDS011;48624;49.812;8.562;2023-04-24T10:08:02;412.45;;;386.02;;
62332;SDS011;48624;49.812;8.562;2023-04-24T10:10:32;103.40;;;99.18;;
62332;SDS011;48624;49.812;8.562;2023-04-24T10:12:59;224.80;;;212.77;;
62332;SDS011;48624;49.812;8.562;2023-04-24T10:15:26;88.47;;;83.88;;
62332;SDS011;48624;49.812;8.562;2023-04-24T10:17:52;180.88;;;168.00;;
62332;SDS011;48624;49.812;8.562;2023-04-24T10:20:23;169.68;;;160.77;;
62332;SDS011;48624;49.812;8.562;2023-04-24T10:22:51;238.52;;;224.10;;
62332;SDS011;48624;49.812;8.562;2023-04-24T10:25:22;180.02;;;172.65;;
62332;SDS011;48624;49.812;8.562;2023-04-24T10:27:49;168.63;;;159.65;;
62332;SDS011;48624;49.812;8.562;2023-04-24T10:30:16;369.05;;;340.13;;
62332;SDS011;48624;49.812;8.562;2023-04-24T10:32:43;546.63;;;508.48;;
62332;SDS011;48624;49.812;8.562;2023-04-24T10:35:09;240.57;;;229.68;;
62332;SDS011;48624;49.812;8.562;2023-04-24T10:37:36;104.90;;;100.03;;
62332;SDS011;48624;49.812;8.562;2023-04-24T10:40:05;53.40;;;50.22;;
62332;SDS011;48624;49.812;8.562;2023-04-24T10:42:32;275.25;;;254.50;;
62332;SDS011;48624;49.812;8.562;2023-04-24T10:44:58;29.85;;;28.42;;
62332;SDS011;48624;49.812;8.562;2023-04-24T10:47:23;29.83;;;28.42;;
62332;SDS011;48624;49.812;8.562;2023-04-24T10:49:50;189.45;;;180.43;;
62332;SDS011;48624;49.812;8.562;2023-04-24T10:52:15;141.80;;;133.90;;
62332;SDS011;48624;49.812;8.562;2023-04-24T10:54:42;87.95;;;81.32;;
62332;SDS011;48624;49.812;8.562;2023-04-24T10:59:50;87.95;;;84.03;;
62332;SDS011;48624;49.812;8.562;2023-04-24T11:02:17;39.78;;;37.80;;
62332;SDS011;48624;49.812;8.562;2023-04-24T11:04:43;61.88;;;59.25;;
62332;SDS011;48624;49.812;8.562;2023-04-24T11:07:10;134.15;;;127.40;;
62332;SDS011;48624;49.812;8.562;2023-04-24T11:09:36;162.02;;;155.07;;
62332;SDS011;48624;49.812;8.562;2023-04-24T11:12:09;41.60;;;40.00;;
62332;SDS011;48624;49.812;8.562;2023-04-24T11:20:06;276.13;;;178.25;;
62332;SDS011;48624;49.812;8.562;2023-04-24T11:22:34;284.10;;;267.85;;
62332;SDS011;48624;49.812;8.562;2023-04-24T11:25:04;91.93;;;87.50;;
62332;SDS011;48624;49.812;8.562;2023-04-24T11:27:31;191.35;;;173.95;;
62332;SDS011;48624;49.812;8.562;2023-04-24T11:34:54;469.08;;;428.52;;
62332;SDS011;48624;49.812;8.562;2023-04-24T11:37:22;380.35;;;355.08;;
62332;SDS011;48624;49.812;8.562;2023-04-24T11:39:53;276.92;;;254.05;;
62332;SDS011;48624;49.812;8.562;2023-04-24T11:42:19;88.50;;;84.20;;
62332;SDS011;48624;49.812;8.562;2023-04-24T11:44:45;156.88;;;150.10;;
62332;SDS011;48624;49.812;8.562;2023-04-24T11:47:12;166.63;;;156.38;;
62332;SDS011;48624;49.812;8.562;2023-04-24T11:49:37;251.90;;;239.55;;
62332;SDS011;48624;49.812;8.562;2023-04-24T11:52:03;329.63;;;306.52;;
62332;SDS011;48624;49.812;8.562;2023-04-24T11:54:30;206.07;;;192.95;;
62332;SDS011;48624;49.812;8.562;2023-04-24T11:56:56;250.52;;;239.13;;
62332;SDS011;48624;49.812;8.562;2023-04-24T11:59:24;424.90;;;404.17;;
62332;SDS011;48624;49.812;8.562;2023-04-24T12:01:50;482.45;;;445.40;;
62332;SDS011;48624;49.812;8.562;2023-04-24T12:04:16;345.48;;;332.08;;
62332;SDS011;48624;49.812;8.562;2023-04-24T12:06:58;629.20;;;588.92;;
62332;SDS011;48624;49.812;8.562;2023-04-24T12:09:25;286.73;;;276.73;;
62332;SDS011;48624;49.812;8.562;2023-04-24T12:11:55;366.23;;;352.08;;
62332;SDS011;48624;49.812;8.562;2023-04-24T12:14:22;300.27;;;289.58;;
62332;SDS011;48624;49.812;8.562;2023-04-24T12:16:48;437.20;;;419.52;;
62332;SDS011;48624;49.812;8.562;2023-04-24T12:19:18;411.25;;;394.13;;
62332;SDS011;48624;49.812;8.562;2023-04-24T12:21:58;469.60;;;438.80;;
62332;SDS011;48624;49.812;8.562;2023-04-24T12:24:24;301.20;;;290.48;;
62332;SDS011;48624;49.812;8.562;2023-04-24T12:26:51;335.13;;;318.73;;
62332;SDS011;48624;49.812;8.562;2023-04-24T12:29:21;675.97;;;625.63;;
62332;SDS011;48624;49.812;8.562;2023-04-24T12:31:46;425.73;;;399.20;;
62332;SDS011;48624;49.812;8.562;2023-04-24T12:34:22;424.27;;;402.65;;
62332;SDS011;48624;49.812;8.562;2023-04-24T12:36:50;374.55;;;359.33;;
62332;SDS011;48624;49.812;8.562;2023-04-24T12:39:16;481.33;;;456.20;;
62332;SDS011;48624;49.812;8.562;2023-04-24T12:41:50;306.85;;;294.85;;
62332;SDS011;48624;49.812;8.562;2023-04-24T12:44:19;345.08;;;329.00;;
62332;SDS011;48624;49.812;8.562;2023-04-24T12:46:44;258.65;;;248.68;;
62332;SDS011;48624;49.812;8.562;2023-04-24T12:49:10;236.43;;;227.30;;
62332;SDS011;48624;49.812;8.562;2023-04-24T12:51:35;416.55;;;395.02;;
62332;SDS011;48624;49.812;8.562;2023-04-24T12:54:01;179.35;;;172.70;;
62332;SDS011;48624;49.812;8.562;2023-04-24T12:56:26;82.40;;;79.28;;
62332;SDS011;48624;49.812;8.562;2023-04-24T12:58:51;206.55;;;199.32;;
62332;SDS011;48624;49.812;8.562;2023-04-24T13:01:17;209.07;;;196.52;;
62332;SDS011;48624;49.812;8.562;2023-04-24T13:03:42;174.48;;;166.35;;
62332;SDS011;48624;49.812;8.562;2023-04-24T13:06:08;234.63;;;217.88;;
62332;SDS011;48624;49.812;8.562;2023-04-24T13:08:33;303.98;;;283.23;;
62332;SDS011;48624;49.812;8.562;2023-04-24T13:10:58;56.35;;;54.05;;
62332;SDS011;48624;49.812;8.562;2023-04-24T13:13:24;45.35;;;42.47;;
62332;SDS011;48624;49.812;8.562;2023-04-24T13:15:49;11.45;;;10.65;;
62332;SDS011;48624;49.812;8.562;2023-04-24T13:18:14;6.90;;;6.20;;
62332;SDS011;48624;49.812;8.562;2023-04-24T13:20:40;23.42;;;21.52;;
62332;SDS011;48624;49.812;8.562;2023-04-24T13:23:06;10.90;;;10.20;;
62332;SDS011;48624;49.812;8.562;2023-04-24T13:25:34;2.33;;;2.05;;
62332;SDS011;48624;49.812;8.562;2023-04-24T13:28:02;11.93;;;11.27;;
62332;SDS011;48624;49.812;8.562;2023-04-24T13:30:27;7.47;;;6.97;;
62332;SDS011;48624;49.812;8.562;2023-04-24T13:32:52;39.63;;;37.40;;
62332;SDS011;48624;49.812;8.562;2023-04-24T13:35:18;9.27;;;8.57;;
62332;SDS011;48624;49.812;8.562;2023-04-24T13:37:43;53.17;;;50.30;;
62332;SDS011;48624;49.812;8.562;2023-04-24T13:40:08;5.65;;;5.25;;
62332;SDS011;48624;49.812;8.562;2023-04-24T13:42:34;20.10;;;19.00;;
62332;SDS011;48624;49.812;8.562;2023-04-24T13:45:00;13.63;;;12.85;;
62332;SDS011;48624;49.812;8.562;2023-04-24T13:47:25;4.88;;;4.15;;
62332;SDS011;48624;49.812;8.562;2023-04-24T13:49:50;5.45;;;4.10;;
62332;SDS011;48624;49.812;8.562;2023-04-24T13:52:16;6.53;;;3.35;;
62332;SDS011;48624;49.812;8.562;2023-04-24T13:54:41;7.15;;;6.68;;
62332;SDS011;48624;49.812;8.562;2023-04-24T13:57:07;4.57;;;3.60;;
62332;SDS011;48624;49.812;8.562;2023-04-24T13:59:32;10.38;;;9.65;;
62332;SDS011;48624;49.812;8.562;2023-04-24T14:01:59;4.95;;;3.95;;
62332;SDS011;48624;49.812;8.562;2023-04-24T14:04:24;7.95;;;7.13;;
62332;SDS011;48624;49.812;8.562;2023-04-24T14:06:50;18.90;;;17.55;;
62332;SDS011;48624;49.812;8.562;2023-04-24T14:09:15;4.90;;;4.18;;